createdAt,value
2022-12-27T00:00:49.688Z,44.15
2022-12-27T00:05:51.345Z,46.05
2022-12-27T00:10:53.045Z,46.30
2022-12-27T00:15:54.678Z,46.80
2022-12-27T00:21:00.938Z,45.87
2022-12-27T00:26:07.635Z,45.50
2022-12-27T00:31:09.791Z,44.94
2022-12-27T00:36:15.207Z,43.67
2022-12-27T00:41:17.489Z,44.36
2022-12-27T00:46:19.319Z,44.95
2022-12-27T00:51:24.309Z,46.07
2022-12-27T00:56:28.348Z,46.28
2022-12-27T01:01:32.917Z,45.01
2022-12-27T01:06:35.554Z,44.48
2022-12-27T01:11:37.202Z,43.89
2022-12-27T01:16:40.752Z,45.10
2022-12-27T01:21:42.554Z,44.37
2022-12-27T01:26:44.260Z,45.25
2022-12-27T01:31:46.175Z,44.15
2022-12-27T01:36:47.797Z,44.22
2022-12-27T01:42:07.939Z,44.77
2022-12-27T01:47:16.133Z,45.41
2022-12-27T01:52:17.839Z,45.29
2022-12-27T01:57:19.949Z,46.07
2022-12-27T02:02:22.616Z,47.77
2022-12-27T02:07:33.309Z,47.78
2022-12-27T02:12:34.957Z,47.38
2022-12-27T02:17:36.729Z,49.23
2022-12-27T02:23:16.922Z,49.54
2022-12-27T02:28:56.404Z,47.98
2022-12-27T02:34:00.445Z,47.31
2022-12-27T02:39:03.966Z,47.96
2022-12-27T02:44:24.265Z,47.98
2022-12-27T02:49:50.328Z,48.76
2022-12-27T02:55:10.912Z,46.68
2022-12-27T03:00:37.367Z,48.32
2022-12-27T03:06:08.431Z,47.31
2022-12-27T03:11:28.930Z,47.69
2022-12-27T03:16:58.476Z,46.53
2022-12-27T03:22:18.933Z,47.73
2022-12-27T03:27:31.573Z,47.96
2022-12-27T03:32:58.607Z,46.67
2022-12-27T03:38:04.345Z,46.67
2022-12-27T03:43:15.717Z,47.79
2022-12-27T03:48:24.026Z,46.36
2022-12-27T03:53:39.681Z,47.17
2022-12-27T03:58:41.322Z,46.08
2022-12-27T04:03:43.219Z,45.82
2022-12-27T04:09:03.334Z,44.60
2022-12-27T04:14:23.488Z,46.05
2022-12-27T04:19:43.352Z,45.38
2022-12-27T04:25:03.613Z,48.55
2022-12-27T04:30:24.359Z,50.89
2022-12-27T04:35:27.500Z,48.61
2022-12-27T04:40:47.901Z,47.94
2022-12-27T04:46:08.417Z,48.70
2022-12-27T04:51:28.501Z,47.35
2022-12-27T04:56:30.068Z,45.86
2022-12-27T05:01:50.572Z,45.65
2022-12-27T05:06:52.541Z,46.68
2022-12-27T05:12:12.720Z,46.50
2022-12-27T05:17:14.436Z,47.82
2022-12-27T05:22:48.206Z,47.37
2022-12-27T05:27:49.928Z,47.52
2022-12-27T05:32:55.209Z,46.95
2022-12-27T05:37:57.340Z,47.28
2022-12-27T05:43:01.079Z,47.57
2022-12-27T05:48:02.750Z,47.06
2022-12-27T05:53:04.680Z,46.16
2022-12-27T05:58:06.365Z,48.46
2022-12-27T06:03:08.020Z,46.93
2022-12-27T06:08:10.890Z,47.12
2022-12-27T06:13:12.589Z,47.12
2022-12-27T06:18:14.204Z,45.85
2022-12-27T06:23:15.793Z,46.76
2022-12-27T06:28:17.352Z,46.26
2022-12-27T06:33:27.534Z,46.20
2022-12-27T06:38:29.194Z,46.49
2022-12-27T06:43:31.033Z,47.76
2022-12-27T06:48:32.827Z,47.63
2022-12-27T06:53:36.458Z,45.49
2022-12-27T06:58:38.629Z,46.19
2022-12-27T07:03:40.794Z,47.17
2022-12-27T07:08:42.525Z,45.44
2022-12-27T07:13:48.351Z,45.03
2022-12-27T07:18:50.430Z,45.94
2022-12-27T07:23:52.153Z,45.38
2022-12-27T07:28:55.062Z,45.39
2022-12-27T07:33:57.960Z,44.96
2022-12-27T07:38:59.690Z,44.75
2022-12-27T07:44:02.012Z,46.28
2022-12-27T07:49:03.749Z,46.33
2022-12-27T07:54:05.728Z,45.16
2022-12-27T07:59:12.975Z,46.51
2022-12-27T08:04:14.677Z,45.96
2022-12-27T08:09:29.641Z,45.70
2022-12-27T08:14:31.391Z,43.98
2022-12-27T08:19:33.342Z,44.50
2022-12-27T08:24:35.058Z,44.92
2022-12-27T08:29:37.845Z,43.63
2022-12-27T08:34:39.686Z,45.45
2022-12-27T08:39:41.970Z,44.46
2022-12-27T08:44:44.141Z,44.89
2022-12-27T08:49:45.965Z,43.54
2022-12-27T08:54:47.634Z,45.09
2022-12-27T08:59:49.303Z,42.89
2022-12-27T09:04:50.985Z,43.69
2022-12-27T09:09:52.684Z,44.09
2022-12-27T09:14:54.513Z,44.34
2022-12-27T09:19:56.703Z,44.52
2022-12-27T09:24:58.400Z,47.78
2022-12-27T09:30:00.136Z,46.04
2022-12-27T09:35:02.932Z,45.17
2022-12-27T09:40:05.155Z,45.04
2022-12-27T09:45:34.587Z,47.62
2022-12-27T09:50:47.392Z,46.20
2022-12-27T09:55:55.979Z,50.78
2022-12-27T10:00:57.661Z,48.93
2022-12-27T10:06:27.736Z,46.40
2022-12-27T10:11:51.866Z,47.77
2022-12-27T10:17:30.330Z,48.05
2022-12-27T10:22:38.838Z,48.52
2022-12-27T10:27:41.987Z,49.86
2022-12-27T10:32:44.751Z,47.24
2022-12-27T10:37:48.022Z,46.96
2022-12-27T10:43:06.286Z,48.10
2022-12-27T10:48:13.962Z,48.70
2022-12-27T10:53:33.963Z,49.78
2022-12-27T10:58:37.728Z,47.98
2022-12-27T11:06:25.928Z,54.23
2022-12-27T11:11:27.504Z,55.24
2022-12-27T11:16:32.774Z,54.58
2022-12-27T11:21:39.564Z,54.46
2022-12-27T11:26:53.770Z,54.87
2022-12-27T11:31:57.044Z,52.29
2022-12-27T11:37:14.482Z,53.91
2022-12-27T11:42:25.273Z,52.29
2022-12-27T11:47:45.705Z,51.38
2022-12-27T11:52:59.606Z,52.08
2022-12-27T11:58:38.410Z,50.71
2022-12-27T12:04:01.174Z,49.16
2022-12-27T12:09:29.644Z,50.59
2022-12-27T12:14:59.306Z,49.97
2022-12-27T12:20:23.522Z,50.34
2022-12-27T12:25:40.456Z,49.49
2022-12-27T12:30:49.387Z,49.99
2022-12-27T12:36:03.991Z,50.08
2022-12-27T12:41:27.379Z,50.18
2022-12-27T12:46:56.093Z,51.25
2022-12-27T12:52:10.964Z,50.05
2022-12-27T12:57:31.024Z,49.50
2022-12-27T13:02:35.799Z,49.18
2022-12-27T13:07:43.377Z,49.13
2022-12-27T13:13:01.790Z,51.85
2022-12-27T13:18:06.068Z,49.67
2022-12-27T13:23:19.129Z,50.16
2022-12-27T13:28:52.529Z,49.39
2022-12-27T13:34:15.851Z,49.61
2022-12-27T13:39:20.241Z,49.26
2022-12-27T13:45:03.655Z,49.35
2022-12-27T13:50:49.659Z,48.73
2022-12-27T13:56:14.655Z,48.96
2022-12-27T14:01:41.561Z,47.62
2022-12-27T14:07:08.400Z,52.06
2022-12-27T14:12:43.835Z,49.81
2022-12-27T14:18:17.720Z,48.23
2022-12-27T14:23:45.735Z,48.65
2022-12-27T14:29:24.913Z,49.84
2022-12-27T14:34:59.296Z,49.21
2022-12-27T14:40:30.038Z,50.53
2022-12-27T14:45:57.615Z,51.54
2022-12-27T14:57:33.187Z,52.18
2022-12-27T15:03:01.530Z,51.21
2022-12-27T15:08:24.733Z,51.55
2022-12-27T15:13:58.071Z,51.79
2022-12-27T15:19:23.046Z,53.57
2022-12-27T15:24:42.670Z,52.88
2022-12-27T15:29:56.091Z,52.69
2022-12-27T15:35:28.422Z,54.03
2022-12-27T15:40:32.784Z,53.36
2022-12-27T15:45:46.475Z,53.38
2022-12-27T15:51:33.924Z,51.12
2022-12-27T15:56:47.060Z,51.58
2022-12-27T16:01:48.961Z,52.61
2022-12-27T16:06:52.324Z,52.34
2022-12-27T16:12:05.802Z,53.60
2022-12-27T16:17:26.216Z,52.75
2022-12-27T16:22:34.116Z,53.44
2022-12-27T16:27:35.752Z,51.92
2022-12-27T16:32:37.452Z,47.47
2022-12-27T16:37:51.093Z,46.90
2022-12-27T16:42:58.678Z,48.35
2022-12-27T16:48:34.352Z,51.77
2022-12-27T16:53:56.098Z,53.49
2022-12-27T16:58:57.814Z,53.68
2022-12-27T17:03:59.529Z,53.62
2022-12-27T17:09:10.041Z,50.34
2022-12-27T17:14:14.293Z,47.75
2022-12-27T17:19:27.291Z,49.81
2022-12-27T17:24:30.100Z,46.63
2022-12-27T17:29:40.461Z,49.81
2022-12-27T17:34:54.363Z,47.82
2022-12-27T17:40:01.901Z,45.93
2022-12-27T17:45:15.713Z,46.44
2022-12-27T17:50:25.662Z,50.89
2022-12-27T17:55:47.529Z,53.24
2022-12-27T18:01:01.931Z,48.00
2022-12-27T18:06:04.553Z,45.32
2022-12-27T18:11:06.632Z,49.12
2022-12-27T18:16:18.933Z,50.02
2022-12-27T18:21:26.513Z,46.50
2022-12-27T18:26:37.963Z,45.71
2022-12-27T18:31:49.736Z,46.92
2022-12-27T18:37:20.909Z,46.48
2022-12-27T18:42:22.417Z,46.41
2022-12-27T18:47:27.314Z,47.23
2022-12-27T18:52:37.572Z,48.09
2022-12-27T18:57:39.213Z,49.08
2022-12-27T19:02:41.911Z,48.96
2022-12-27T19:13:01.053Z,45.66
2022-12-27T19:18:13.050Z,47.21
2022-12-27T19:23:30.018Z,48.22
2022-12-27T19:28:32.771Z,47.57
2022-12-27T19:33:36.083Z,48.35
2022-12-27T19:38:47.492Z,47.46
2022-12-27T19:43:50.138Z,46.38
2022-12-27T19:49:31.840Z,48.36
2022-12-27T19:54:16.989Z,48.86
2022-12-27T19:59:20.929Z,46.32
2022-12-27T20:04:22.570Z,46.65
2022-12-27T20:09:24.231Z,46.79
2022-12-27T20:14:25.903Z,48.42
2022-12-27T20:19:27.571Z,46.51
2022-12-27T20:24:31.591Z,49.27
2022-12-27T20:29:33.280Z,54.32
2022-12-27T20:34:34.938Z,55.00
2022-12-27T20:39:36.581Z,55.37
2022-12-27T20:44:40.169Z,53.99
2022-12-27T20:49:42.529Z,50.96
2022-12-27T20:54:44.227Z,51.46
2022-12-27T20:59:45.874Z,52.66
2022-12-27T21:04:47.556Z,50.63
2022-12-27T21:09:49.294Z,50.27
2022-12-27T21:14:50.996Z,50.02
2022-12-27T21:19:52.953Z,49.49
2022-12-27T21:24:54.619Z,50.49
2022-12-27T21:29:56.338Z,51.46
2022-12-27T21:34:57.972Z,51.44
2022-12-27T21:39:59.621Z,50.47
2022-12-27T21:45:01.332Z,50.23
2022-12-27T21:50:03.054Z,49.06
2022-12-27T21:55:05.071Z,50.51
2022-12-27T22:00:07.273Z,51.35
2022-12-27T22:05:09.020Z,49.94
2022-12-27T22:10:10.893Z,50.96
2022-12-27T22:15:12.577Z,50.40
2022-12-27T22:20:14.909Z,48.26
2022-12-27T22:25:16.853Z,48.86
2022-12-27T22:30:18.835Z,50.92
2022-12-27T22:35:20.513Z,49.03
2022-12-27T22:40:30.586Z,48.55
2022-12-27T22:45:33.266Z,51.38
2022-12-27T22:50:37.674Z,52.54
2022-12-27T22:55:42.221Z,49.54
2022-12-27T23:00:44.069Z,49.11
2022-12-27T23:05:45.777Z,51.19
2022-12-27T23:10:47.396Z,51.50
2022-12-27T23:15:57.551Z,50.57
2022-12-27T23:21:21.312Z,49.34
2022-12-27T23:26:23.151Z,48.29
2022-12-27T23:31:26.069Z,48.94
2022-12-27T23:36:27.777Z,49.67
2022-12-27T23:41:29.653Z,51.00
2022-12-27T23:46:33.425Z,49.30
2022-12-27T23:51:35.236Z,48.75
2022-12-27T23:56:36.974Z,50.39
